createdAt,value
2022-12-11T00:03:52.770Z,80.04
2022-12-11T00:08:56.296Z,81.47
2022-12-11T00:13:59.573Z,81.13
2022-12-11T00:19:04.385Z,80.90
2022-12-11T00:24:08.277Z,80.23
2022-12-11T00:29:14.733Z,80.52
2022-12-11T00:34:19.394Z,80.26
2022-12-11T00:39:22.661Z,80.67
2022-12-11T00:44:26.002Z,80.91
2022-12-11T00:49:30.949Z,81.46
2022-12-11T00:54:35.584Z,82.03
2022-12-11T00:59:39.238Z,82.21
2022-12-11T01:04:43.949Z,82.40
2022-12-11T01:10:04.478Z,81.75
2022-12-11T01:15:08.961Z,81.41
2022-12-11T01:20:14.162Z,82.06
2022-12-11T01:25:17.391Z,81.83
2022-12-11T01:30:22.493Z,81.35
2022-12-11T01:35:27.156Z,81.88
2022-12-11T01:40:30.538Z,82.18
2022-12-11T01:45:40.277Z,81.56
2022-12-11T01:50:48.285Z,82.16
2022-12-11T01:55:54.851Z,82.30
2022-12-11T02:00:58.847Z,82.78
2022-12-11T02:06:03.724Z,82.35
2022-12-11T02:11:13.916Z,82.59
2022-12-11T02:16:22.847Z,81.92
2022-12-11T02:21:34.251Z,82.10
2022-12-11T02:27:15.876Z,81.85
2022-12-11T02:32:24.012Z,81.78
2022-12-11T02:37:30.815Z,81.41
2022-12-11T02:42:35.445Z,81.36
2022-12-11T02:47:41.083Z,82.04
2022-12-11T02:52:46.148Z,82.10
2022-12-11T02:57:52.749Z,82.38
2022-12-11T03:02:58.129Z,82.33
2022-12-11T03:08:01.443Z,82.46
2022-12-11T03:13:05.588Z,82.77
2022-12-11T03:18:17.260Z,82.16
2022-12-11T03:23:27.319Z,82.35
2022-12-11T03:28:37.509Z,83.05
2022-12-11T03:33:44.690Z,83.61
2022-12-11T03:38:50.433Z,83.61
2022-12-11T03:43:55.578Z,82.95
2022-12-11T03:49:02.578Z,83.74
2022-12-11T03:54:06.427Z,83.69
2022-12-11T03:59:09.791Z,83.79
2022-12-11T04:04:14.577Z,83.63
2022-12-11T04:09:17.815Z,83.74
2022-12-11T04:14:38.363Z,84.25
2022-12-11T04:20:00.538Z,84.10
2022-12-11T04:25:05.287Z,84.59
2022-12-11T04:30:12.627Z,84.12
2022-12-11T04:35:17.330Z,84.32
2022-12-11T04:40:21.944Z,84.42
2022-12-11T04:45:25.106Z,84.56
2022-12-11T04:50:29.685Z,83.68
2022-12-11T04:55:32.852Z,83.85
2022-12-11T05:00:35.999Z,84.28
2022-12-11T05:05:40.683Z,83.93
2022-12-11T05:10:49.857Z,83.87
2022-12-11T05:15:53.587Z,83.35
2022-12-11T05:20:59.472Z,84.21
2022-12-11T05:26:04.871Z,83.67
2022-12-11T05:31:12.932Z,84.04
2022-12-11T05:36:20.106Z,83.86
2022-12-11T05:41:26.019Z,83.57
2022-12-11T05:46:31.364Z,83.97
2022-12-11T05:51:36.373Z,83.50
2022-12-11T05:56:39.891Z,82.92
2022-12-11T06:01:44.432Z,83.11
2022-12-11T06:06:49.123Z,82.93
2022-12-11T06:11:52.258Z,82.29
2022-12-11T06:16:55.499Z,82.85
2022-12-11T06:22:00.161Z,82.70
2022-12-11T06:27:03.422Z,82.89
2022-12-11T06:32:07.204Z,83.13
2022-12-11T06:37:12.012Z,82.78
2022-12-11T06:42:16.810Z,83.35
2022-12-11T06:47:20.100Z,82.94
2022-12-11T06:52:25.629Z,82.83
2022-12-11T06:57:28.777Z,83.52
2022-12-11T07:02:32.072Z,83.01
2022-12-11T07:07:36.768Z,82.21
2022-12-11T07:12:40.005Z,82.67
2022-12-11T07:17:43.466Z,82.92
2022-12-11T07:22:48.194Z,82.20
2022-12-11T07:27:51.350Z,82.45
2022-12-11T07:32:54.690Z,82.57
2022-12-11T07:37:59.870Z,82.50
2022-12-11T07:43:02.903Z,82.25
2022-12-11T07:48:06.656Z,82.59
2022-12-11T07:53:11.332Z,82.44
2022-12-11T07:58:14.545Z,82.45
2022-12-11T08:03:17.774Z,82.07
2022-12-11T08:08:22.481Z,82.75
2022-12-11T08:13:25.709Z,82.33
2022-12-11T08:18:31.082Z,82.42
2022-12-11T08:23:38.265Z,82.03
2022-12-11T08:28:42.121Z,82.32
2022-12-11T08:33:45.773Z,81.72
2022-12-11T08:38:51.162Z,81.30
2022-12-11T08:43:55.356Z,81.52
2022-12-11T08:49:01.270Z,81.23
2022-12-11T08:54:07.489Z,81.12
2022-12-11T08:59:11.004Z,80.77
2022-12-11T09:04:14.151Z,81.09
2022-12-11T09:09:19.942Z,81.05
2022-12-11T09:14:23.282Z,81.20
2022-12-11T09:19:31.892Z,81.11
2022-12-11T09:24:37.003Z,81.13
2022-12-11T09:29:40.814Z,80.92
2022-12-11T09:34:43.966Z,81.59
2022-12-11T09:39:48.687Z,81.84
2022-12-11T09:44:55.366Z,81.19
2022-12-11T09:50:08.179Z,81.24
2022-12-11T09:55:17.885Z,81.22
2022-12-11T15:11:34.010Z,86.10
2022-12-11T15:16:41.025Z,87.21
2022-12-11T15:21:44.363Z,86.98
2022-12-11T15:26:58.257Z,87.21
2022-12-11T15:32:08.457Z,86.49
2022-12-11T15:37:34.317Z,87.01
2022-12-11T15:42:56.499Z,86.44
2022-12-11T15:48:01.069Z,86.14
2022-12-11T15:53:05.275Z,86.02
2022-12-11T15:58:17.526Z,86.38
2022-12-11T16:03:23.849Z,86.83
2022-12-11T16:08:27.036Z,86.06
2022-12-11T16:13:31.620Z,86.97
2022-12-11T16:18:34.766Z,87.15
2022-12-11T16:23:37.997Z,86.16
2022-12-11T16:28:44.234Z,86.70
2022-12-11T16:33:47.411Z,86.86
2022-12-11T16:38:53.858Z,86.24
2022-12-11T16:43:58.967Z,85.98
2022-12-11T16:49:02.095Z,85.76
2022-12-11T16:54:05.647Z,87.10
2022-12-11T16:59:11.028Z,87.08
2022-12-11T17:04:14.168Z,86.96
2022-12-11T17:09:17.349Z,87.22
2022-12-11T17:14:21.918Z,86.01
2022-12-11T17:19:25.281Z,86.68
2022-12-11T17:24:29.039Z,86.61
2022-12-11T17:29:33.610Z,86.21
2022-12-11T17:34:38.599Z,86.39
2022-12-11T17:39:41.575Z,86.82
2022-12-11T17:44:46.663Z,86.19
2022-12-11T17:49:49.530Z,87.27
2022-12-11T17:54:54.091Z,86.17
2022-12-11T17:59:58.742Z,86.70
2022-12-11T18:05:03.355Z,85.99
2022-12-11T18:10:08.629Z,86.24
2022-12-11T18:15:15.088Z,86.70
2022-12-11T18:20:18.597Z,86.04
2022-12-11T18:25:48.346Z,85.97
2022-12-11T18:30:53.661Z,86.01
2022-12-11T18:35:59.430Z,86.44
2022-12-11T18:41:07.655Z,85.96
2022-12-11T18:46:22.197Z,85.68
2022-12-11T18:51:27.356Z,85.49
2022-12-11T18:56:31.566Z,85.82
2022-12-11T19:01:42.849Z,86.13
2022-12-11T19:06:48.984Z,86.17
2022-12-11T19:11:53.221Z,85.83
2022-12-11T19:17:09.420Z,85.75
2022-12-11T19:22:17.673Z,85.68
2022-12-11T19:27:21.692Z,86.12
2022-12-11T19:32:40.082Z,86.22
2022-12-11T19:37:50.278Z,85.94
2022-12-11T19:42:54.544Z,85.57
2022-12-11T19:48:00.695Z,86.39
2022-12-11T19:53:04.011Z,86.05
